createdAt,value
2022-08-02T14:15:48.701Z,48.60
2022-08-02T14:20:53.608Z,49.70
2022-08-02T14:25:58.920Z,49.30
2022-08-02T14:31:05.070Z,48.80
2022-08-02T14:36:09.717Z,48.70
2022-08-02T14:41:14.007Z,48.40
2022-08-02T14:46:19.953Z,48.20
2022-08-02T14:51:24.674Z,47.50
2022-08-02T14:56:29.416Z,48.50
2022-08-02T15:01:35.442Z,49.10
2022-08-02T15:06:39.968Z,49.00
2022-08-02T15:11:47.876Z,49.40
2022-08-02T15:16:58.007Z,50.10
2022-08-02T15:22:03.350Z,50.20
2022-08-02T15:27:13.111Z,48.80
2022-08-02T15:32:19.989Z,49.20
2022-08-02T15:37:25.372Z,49.40
2022-08-02T15:42:30.240Z,47.60
2022-08-02T15:47:36.937Z,47.20
2022-08-02T15:52:41.491Z,47.10
2022-08-02T15:57:46.901Z,48.40
2022-08-02T16:02:52.600Z,49.70
2022-08-02T16:07:58.151Z,49.50
2022-08-02T16:13:16.672Z,47.40
2022-08-02T16:18:22.379Z,46.80
2022-08-02T16:23:59.592Z,47.10
2022-08-02T16:28:51.034Z,47.00
2022-08-02T16:33:57.415Z,46.40
2022-08-02T16:39:02.064Z,45.00
2022-08-02T16:44:06.729Z,45.10
2022-08-02T16:50:04.128Z,44.90
2022-08-02T16:54:38.221Z,44.70
2022-08-02T16:59:45.231Z,44.90
2022-08-02T17:05:04.161Z,44.40
2022-08-02T17:10:10.226Z,44.00
2022-08-02T17:16:17.034Z,42.80
2022-08-02T17:20:40.720Z,41.30
2022-08-02T17:25:52.429Z,37.90
2022-08-02T17:30:57.240Z,34.90
2022-08-02T17:36:03.199Z,33.20
2022-08-02T17:41:07.621Z,32.40
2022-08-02T17:46:19.603Z,31.80
2022-08-02T17:51:32.967Z,31.20
2022-08-02T17:56:52.047Z,30.90
2022-08-02T18:01:58.418Z,30.70
2022-08-02T18:07:11.217Z,30.30
2022-08-02T18:12:21.338Z,30.00
2022-08-02T18:17:26.044Z,29.70
2022-08-02T18:22:35.131Z,29.40
2022-08-02T18:27:41.815Z,29.30
2022-08-02T18:33:55.168Z,28.90
2022-08-02T18:38:16.097Z,28.70
2022-08-02T18:43:25.747Z,28.50
2022-08-02T18:48:33.875Z,28.30
2022-08-02T18:53:43.267Z,28.10
2022-08-02T18:58:47.735Z,27.90
2022-08-02T19:03:52.887Z,27.70
2022-08-02T19:09:11.198Z,27.50
2022-08-02T19:14:27.804Z,27.40
2022-08-02T19:19:33.062Z,27.20
2022-08-02T19:24:39.137Z,27.00
2022-08-02T19:40:41.873Z,26.40
2022-08-02T19:45:51.208Z,26.20
2022-08-02T19:50:59.204Z,26.00
2022-08-02T19:56:07.275Z,25.50
2022-08-02T20:01:16.517Z,25.30
2022-08-02T20:06:29.622Z,25.00
2022-08-02T20:11:36.149Z,24.80
2022-08-02T20:16:42.441Z,24.70
2022-08-02T20:21:54.169Z,24.50
2022-08-02T20:27:16.906Z,24.30
2022-08-02T20:32:26.556Z,24.00
2022-08-02T20:38:00.219Z,23.80
2022-08-02T20:42:57.521Z,23.70
2022-08-02T20:48:01.899Z,23.60
2022-08-02T20:53:08.154Z,23.40
2022-08-02T20:58:31.056Z,23.10
2022-08-02T21:03:39.769Z,22.90
2022-08-02T21:08:46.069Z,22.70
2022-08-02T21:14:08.308Z,22.60
2022-08-02T21:19:13.744Z,22.50
2022-08-02T21:24:18.153Z,22.40
2022-08-02T21:29:33.220Z,22.30
2022-08-02T21:34:37.858Z,22.20
2022-08-02T21:39:42.355Z,22.10
2022-08-02T21:44:55.580Z,21.90
2022-08-02T21:50:13.518Z,21.80
2022-08-02T21:55:24.005Z,21.70
2022-08-02T22:00:42.598Z,21.70
2022-08-02T22:05:47.449Z,21.60
2022-08-02T22:11:04.526Z,21.50
2022-08-02T22:16:22.850Z,21.40
2022-08-02T22:21:32.389Z,21.40
2022-08-02T22:26:51.029Z,21.20
2022-08-02T22:31:56.693Z,21.10
2022-08-02T22:37:02.000Z,21.00
2022-08-02T22:42:10.365Z,20.90
2022-08-02T22:47:16.071Z,20.90
2022-08-02T22:52:21.039Z,20.70
2022-08-02T22:57:31.074Z,20.70
2022-08-02T22:58:48.175Z,26.80
2022-08-02T22:59:06.041Z,26.70
2022-08-02T23:02:37.650Z,20.60
2022-08-02T23:07:42.902Z,20.60
2022-08-02T23:12:47.341Z,20.50
2022-08-02T23:18:25.190Z,20.50
2022-08-02T23:23:29.903Z,20.50
2022-08-02T23:28:34.609Z,20.30
2022-08-02T23:34:03.778Z,20.40
2022-08-02T23:39:05.600Z,20.30
2022-08-02T23:44:14.869Z,20.10
2022-08-02T23:49:22.820Z,20.00
2022-08-02T23:54:27.360Z,19.90
2022-08-02T23:59:33.049Z,19.80
